Lencois Paulista, Brazil
Current Conditions -  °F | °C
As of 6:20 AM on Tuesday 27 Jan 2015 (Local Time) from SBBU Reporting Station
Broken Clouds Broken Clouds  
Wind Chill: 72°   Ceiling: 600
Heat Index: 72°   Visibility: 6mi
Dew Point: 72°   Wind: 6mph
Humidity: 100%   Direction: 350°N
Pressure: 30"   Gusts: NA
Location:  22.59°S, 48.8°W
Report Text: SBBU 270820Z 35005KT 9999 BKN006 22/22 Q1016
Loading
Personal Weather Stations






























Interactive Weather Map New forecast layout! Learn more

10-Day Weather Forecast

Advertisements
Track Severe Weather on mobile